Tiempo atmosférico en la estación meteorológica de Menorca Aeropuerto, Illes Balears (91 m.)



Fecha
DESCASC
Temp. máxima en grados centígrados (hora)
DESCASC
Temp. mínima en grados centígrados (hora)
DESCASC
Temp. media en grados centígrados
DESCASC
Racha de viento máxima en m/sg (hora)
DESCASC
Velocidad máxima media en intervalos de 10 minutos(hora)
DESCASC
Precipitaciones diarias en mm
DESCASC
Precipitaciones de 00:00 a 06:00 en mm
DESCASC
Precipitaciones de 06:00 a 12:00 en mm
DESCASC
Precipitaciones de 12:00 a 18:00 en mm
DESCASC
Precipitaciones de 18:00 a 24:00 en mm
DESCASC

Gráficas

Temp. máximas Temp. mínimas Temp. medias Precipitaciones Rachas de viento máximas Velocidades máximas media en intervalos de 10 minutos

Datos horarios

Fecha y hora oficial Temperatura (ºC) Velocidad del viento (km/h) Dirección del viento Racha (km/h) Dirección de racha Precipitación (mm) Presión (hPa) Tendencia (hPa) Humedad (%)
2020-01-25 23:00:00 12 11 Sudeste 18 Sudeste 0 1008.6 0 97
2020-01-25 22:00:00 11.7 14 Sudeste 18 Sudeste 0 1008.7 0.2 97
2020-01-25 21:00:00 12.2 14 Sudeste 21 Sudeste 0 1008.7 0.4 96
2020-01-25 20:00:00 12.5 14 Sudeste 22 Sudeste 0 1008.6 0.3 96
2020-01-25 19:00:00 12.1 8 Este 17 Este 0 1008.5 -0.2 95
2020-01-25 18:00:00 13.1 12 Este 18 Sudeste 0 1008.3 -0.8 93
2020-01-25 17:00:00 14.1 16 Sudeste 30 Este 0 1008.3 -1.2 89
2020-01-25 16:00:00 15.2 16 Sudeste 30 Sudeste 0 1008.7 -1.9 83
2020-01-25 15:00:00 16.1 19 Sudeste 30 Sudeste 0 1009.1 -2.4 79
2020-01-25 14:00:00 16 22 Sudeste 32 Este 0 1009.5 -2.2 78
2020-01-25 13:00:00 15.5 18 Sudeste 28 Este 0 1010.6 -0.9 79
2020-01-25 12:00:00 15.7 18 Sudeste 26 Este 0 1011.5 0.3 79
2020-01-25 11:00:00 14.9 17 Sudeste 26 Sudeste 0 1011.7 0.8 82
2020-01-25 10:00:00 13.9 15 Sudeste 22 Sudeste 0 1011.5 0.8 90
2020-01-25 09:00:00 11.5 13 Sudeste 28 Sudeste 0 1011.2 0.6 98
2020-01-25 08:00:00 9.2 12 Este 17 Sudeste 0 1010.9 0.1 98
2020-01-25 07:00:00 9.5 10 Sudeste 13 Sudeste 0 1010.7 -0.7 99
2020-01-25 06:00:00 9.2 10 Este 15 Sudeste 0 1010.6 -1.1 99
2020-01-25 05:00:00 -- 11 Sudeste 13 Sudeste 0 1010.8 -1 --
2020-01-25 04:00:00 9.2 10 Sudeste 13 Sudeste 0 1011.4 -0.8 98
2020-01-25 03:00:00 8.8 9 Sudeste -- -- 0 1011.7 -0.5 98
2020-01-25 02:00:00 8.2 9 Este -- -- 0 1011.8 -0.4 98
2020-01-25 01:00:00 6.7 6 Este -- -- 0 1012.2 0 97
2020-01-25 00:00:00 6.8 -- -- -- -- 0 1012.2 -0.1 97
2020-01-24 23:00:00 7.2 -- -- -- -- 0 1012.2 0.2 97
2020-01-24 22:00:00 7.3 11 Norte 13 Norte 0 1012.2 0.8 96
2020-01-24 21:00:00 8 8 Norte 15 Norte 0 1012.3 1.1 95
2020-01-24 20:00:00 8.6 11 Norte -- -- 0 1012 1.4 95
2020-01-24 19:00:00 9.4 12 Norte 13 Norte 0 1011.4 1 93
2020-01-24 18:00:00 11.9 4 Noroeste 13 Norte 0 1011.2 0.6 86
2020-01-24 17:00:00 14.1 12 Norte 18 Norte 0 1010.6 0.1 79
2020-01-24 16:00:00 16.1 11 Norte 21 Norte 0 1010.4 -0.6 67
2020-01-24 15:00:00 16 6 Noroeste 17 Noroeste 0 1010.6 -1.1 66
2020-01-24 14:00:00 16.7 8 Noroeste 15 Norte 0 1010.5 -1.2 68
2020-01-24 13:00:00 17.2 6 Norte 17 Noroeste 0 1011 -0.3 70
2020-01-24 12:00:00 15.4 6 Noroeste 17 Norte 0 1011.7 0.5 80
2020-01-24 11:00:00 14.8 12 Norte 17 Norte 0 1011.7 0.8 88
2020-01-24 10:00:00 13.5 6 Norte 13 Norte 0 1011.3 0.6 97
2020-01-24 09:00:00 11.1 10 Norte 15 Norte 0 1011.2 0.6 99
2020-01-24 08:00:00 9.3 11 Norte 13 Norte 0 1010.9 0.3 99
2020-01-24 07:00:00 9.8 11 Norte 13 Norte 0 1010.7 -0.1 99
2020-01-24 06:00:00 10.3 7 Noroeste 13 Norte 0 1010.6 -0.7 99
2020-01-24 05:00:00 10.3 9 Norte -- -- 0 1010.6 -0.9 99
2020-01-24 04:00:00 9.9 7 Nordeste -- -- 0 1010.8 -1 98
2020-01-24 03:00:00 10.6 9 Nordeste -- -- 0 1011.3 -0.8 98
2020-01-24 02:00:00 9.9 7 Nordeste -- -- 0 1011.5 -0.7 98
2020-01-24 01:00:00 8.9 8 Nordeste 15 Norte 0 1011.8 -0.7 98
2020-01-24 00:00:00 8.9 13 Norte -- -- 0 1012.1 -0.4 97
2020-01-23 23:00:00 9.2 -- -- -- -- 0 1012.2 0.1 96
2020-01-23 22:00:00 10.6 9 Nordeste 13 Nordeste 0 1012.5 0.7 96
2020-01-23 21:00:00 10.7 10 Nordeste 15 Este 0 1012.5 1.1 96
2020-01-23 20:00:00 10.5 13 Nordeste 17 Norte 0 1012.1 0.8 96
2020-01-23 19:00:00 10.7 12 Norte 15 Norte 0 1011.8 0.4 94
2020-01-23 18:00:00 11.4 5 Noroeste 8 Norte 0 1011.4 -0.2 87
2020-01-23 17:00:00 15.7 4 Sudoeste 9 Sur 0 1011.3 -0.3 72
2020-01-23 16:00:00 16.6 6 Sudoeste 17 Sur 0 1011.4 -0.3 69
2020-01-23 15:00:00 16.7 10 Sudoeste 17 Sudoeste 0 1011.6 -0.7 64
2020-01-23 14:00:00 16.5 9 Sudoeste 18 Sudoeste 0 1011.6 -0.7 70
2020-01-23 13:00:00 16.1 13 Sudoeste 24 Sudoeste 0 1011.7 -0.2 73
2020-01-23 12:00:00 16.3 15 Sur 24 Sur 0 1012.3 0.9 72
2020-01-23 11:00:00 15.7 15 Sur 22 Sudoeste 0 1012.3 1.5 75
2020-01-23 10:00:00 15.1 15 Sur 22 Sur 0 1011.9 1.9 78
2020-01-23 09:00:00 12.9 13 Sur 21 Sudoeste 0 1011.4 1.7 86
2020-01-23 08:00:00 11.3 12 Sur 22 Sur 0 1010.8 1.6 89
2020-01-23 07:00:00 11.3 12 Sur 17 Sur 0 1010 1 87
2020-01-23 06:00:00 12.3 13 Sur 21 Sudeste 0 1009.7 0.1 91
2020-01-23 05:00:00 12.7 9 Sudeste 13 Sudeste 0 1009.2 -0.2 94
2020-01-23 04:00:00 13.6 11 Sudeste 24 Sur 0 1009 -0.5 92
2020-01-23 03:00:00 14.3 16 Sur 32 Sur 0 1009.6 1.5 93
2020-01-23 02:00:00 14.3 20 Sur 35 Sur 0 1009.4 1 92
2020-01-23 01:00:00 14.3 28 Sudeste 50 Sur 1.3 1009.5 1.5 90
2020-01-23 00:00:00 14.5 24 Sudeste 59 Este 0 1008.1 0.2 88
2020-01-22 23:00:00 14.7 29 Sudeste 52 Este 0 1008.4 0.3 85
2020-01-22 22:00:00 14.5 33 Este 48 Este 0 1008 0.1 87
2020-01-22 21:00:00 14.3 36 Este 52 Sudeste 0 1007.9 0 88
2020-01-22 20:00:00 14.1 31 Este 48 Sudeste 0 1008.1 -0.1 87
2020-01-22 19:00:00 14.1 32 Sudeste 48 Sudeste 0 1007.9 -0.5 87
2020-01-22 18:00:00 14.1 32 Sudeste 50 Sudeste 0 1007.9 -0.7 87
2020-01-22 17:00:00 14.3 31 Sudeste 55 Sudeste 0 1008.2 -0.8 87
2020-01-22 16:00:00 14.7 36 Sudeste 58 Sudeste 0 1008.4 -1.4 86
2020-01-22 15:00:00 15.4 35 Sudeste 52 Este 0 1008.6 -1.7 83
2020-01-22 14:00:00 15.6 40 Sudeste 63 Sudeste 0 1009 -1.7 82
2020-01-22 13:00:00 16.2 39 Sudeste 61 Sudeste 0 1009.8 -0.8 80
2020-01-22 12:00:00 15.8 41 Sudeste 59 Este 0 1010.3 0 82
2020-01-22 11:00:00 15.1 31 Sudeste 52 Este 0 1010.7 0.4 86
2020-01-22 10:00:00 14.4 32 Este 46 Este 0 1010.6 0.7 88
2020-01-22 09:00:00 14 31 Este 42 Este 0 1010.3 0.4 89
2020-01-22 08:00:00 13.7 23 Este 33 Este 0 1010.3 0.4 90
2020-01-22 07:00:00 13.8 21 Sudeste 30 Sudeste 0 1009.9 -0.1 91
2020-01-22 06:00:00 14 17 Sudeste 26 Sudeste 0 1009.9 0.1 91
2020-01-22 05:00:00 13.9 16 Sudeste 28 Sudeste 0 1009.9 0.2 93
2020-01-22 04:00:00 14.2 20 Sudeste 32 Sudeste 0 1010 0.1 91
2020-01-22 03:00:00 14 17 Sudeste 30 Sudeste 0 1009.8 -0.3 92
2020-01-22 02:00:00 13.3 15 Este 26 Este 0 1009.7 -0.3 92
2020-01-22 01:00:00 13.6 20 Este 32 Este 0 1009.9 -0.2 92
2020-01-22 00:00:00 13.8 24 Este 41 Este 0 1010.1 0.1 91
2020-01-21 23:00:00 13.9 28 Este 45 Este 0 1010 0.5 92
2020-01-21 22:00:00 14.1 31 Este 48 Este 0 1010.1 0.9 91
2020-01-21 21:00:00 14 35 Este 52 Este 0 1010 1.5 90
2020-01-21 20:00:00 13.9 35 Este 55 Este 0 1009.5 0.8 91
2020-01-21 19:00:00 13.6 36 Este 72 Este 1.6 1009.2 -0.2 93
2020-01-21 18:00:00 13.7 44 Este 65 Este 3.3 1008.5 -1 92
2020-01-21 17:00:00 13.8 40 Este 63 Norte 0.7 1008.7 -1.5 91
2020-01-21 16:00:00 14.2 39 Este 58 Este 0 1009.4 -1.2 86
2020-01-21 15:00:00 14.1 45 Este 65 Este 0 1009.5 -1.7 85
2020-01-21 14:00:00 14.5 41 Este 68 Este 0 1010.2 -1 83
2020-01-21 13:00:00 14.6 44 Este 71 Este 0 1010.6 0.6 82
2020-01-21 12:00:00 14.5 44 Este 76 Sudeste 0 1011.2 1.1 83
2020-01-21 11:00:00 14.5 42 Este 74 Este 0 1011.2 1.1 83
2020-01-21 10:00:00 14.3 53 Este 87 Este 0 1010 -0.2 83
2020-01-21 09:00:00 14.3 49 Este 74 Este 0 1010.1 -0.1 83
2020-01-21 08:00:00 14.1 42 Este 61 Este 0 1010.1 -0.1 85
2020-01-21 07:00:00 14 41 Este 63 Este 0 1010.2 0 86
2020-01-21 06:00:00 14 41 Este 59 Este 0 1010.2 -0.4 85
2020-01-21 05:00:00 13.9 33 Este 63 Norte 0 1010.2 -0.5 87
2020-01-21 04:00:00 13.9 36 Este 63 Este 0 1010.2 -1.1 86
2020-01-21 03:00:00 13.9 39 Este 61 Este 0 1010.6 -0.9 86
2020-01-21 02:00:00 13.8 45 Este 67 Este 0 1010.7 -0.6 86
2020-01-21 01:00:00 14 45 Este 67 Este 0 1011.3 0.1 86
2020-01-21 00:00:00 14 43 Este 65 Norte 0 1011.5 0.1 88
2020-01-20 23:00:00 13.7 36 Este 54 Norte 0 1011.3 0.1 89
2020-01-20 22:00:00 13.1 26 Este 45 Este 0.1 1011.2 0.2 92
2020-01-20 21:00:00 12.9 32 Este 55 Norte 0.6 1011.4 1.2 94
2020-01-20 20:00:00 12.5 36 Este 61 Este 0 1011.2 1.6 93
2020-01-20 19:00:00 12.8 36 Nordeste 52 Este 0 1011 1.8 92
2020-01-20 18:00:00 12.3 17 Este 26 Este 0 1010.2 1.3 89
2020-01-20 17:00:00 12.6 17 Este 30 Este 0 1009.6 0.8 88
2020-01-20 16:00:00 13 19 Sudeste 32 Este 0 1009.2 0.7 87
2020-01-20 15:00:00 13 25 Nordeste 42 Norte 0 1008.9 -0.1 91
2020-01-20 14:00:00 12.4 32 Este 48 Este 0.1 1008.8 -0.7 90
2020-01-20 13:00:00 11.5 31 Este 68 Este 1.4 1008.5 0 95
2020-01-20 12:00:00 11.3 32 Este 58 Nordeste 4.5 1009 1.2 96
2020-01-20 11:00:00 11.2 44 Este 68 Este 3.9 1009.5 2.2 96
2020-01-20 10:00:00 11.3 44 Este 78 Este 10.9 1008.5 1.4 97
2020-01-20 09:00:00 10.8 45 Este 71 Este 9.9 1007.8 1.3 97
2020-01-20 08:00:00 11.1 47 Nordeste 71 Nordeste 1.1 1007.3 1 95
2020-01-20 07:00:00 11 44 Nordeste 74 Este 0.1 1007.1 0.6 89
2020-01-20 06:00:00 11.1 48 Este 78 Este 0 1006.5 -0.1 87
2020-01-20 05:00:00 11 43 Este 65 Este 2.4 1006.3 -0.2 93
2020-01-20 04:00:00 10.3 40 Este 72 Este 6.7 1006.5 -0.6 95
2020-01-20 03:00:00 10.4 49 Este 72 Nordeste 3.3 1006.6 -0.7 95
2020-01-20 02:00:00 10.4 45 Nordeste 65 Nordeste 2.8 1006.5 -0.8 96
2020-01-20 01:00:00 10.3 41 Este 61 Este 3.6 1007.1 0.1 96
2020-01-20 00:00:00 10.2 33 Nordeste 52 Este 3 1007.3 0.3 97
2020-01-19 23:00:00 10.1 28 Nordeste 48 Este 3.3 1007.3 1.1 98
2020-01-19 22:00:00 10.1 28 Nordeste 48 Este 4.3 1007 1 99
2020-01-19 21:00:00 10.1 31 Este 54 Nordeste 5.7 1007 1.2 99
2020-01-19 20:00:00 10.2 42 Nordeste 67 Nordeste 3.8 1006.2 0.9 99
2020-01-19 19:00:00 9.6 45 Nordeste 72 Nordeste 6.9 1006 1.5 98
2020-01-19 18:00:00 10.6 11 Nordeste 18 Norte 4.4 1005.8 1 97
2020-01-19 17:00:00 10.8 2 Sudeste 15 Este 4.2 1005.3 0.1 97
2020-01-19 16:00:00 10.9 17 Este 46 Norte 9.9 1004.5 -1.4 97
2020-01-19 15:00:00 11.7 15 Nordeste 33 Nordeste 4.3 1004.8 -1.8 96
2020-01-19 14:00:00 11.8 19 Nordeste 28 Nordeste 0 1005.2 -1.8 96
2020-01-19 13:00:00 12.2 16 Nordeste 26 Nordeste 0 1005.9 -0.5 95
2020-01-19 12:00:00 12.1 12 Nordeste 21 Este 0.3 1006.6 0.5 95
2020-01-19 11:00:00 12 11 Este 21 Norte 0.1 1007 0.5 95
2020-01-19 10:00:00 11.8 13 Este 18 Este 0.3 1006.4 -0.5 95
2020-01-19 09:00:00 11.8 7 Este 13 Este 0.4 1006.1 -1.2 96
2020-01-19 08:00:00 11.4 9 Este 18 Este 0 1006.5 -1.3 95
2020-01-19 07:00:00 11.3 9 Este -- -- 0 1006.9 -1.7 94
2020-01-19 06:00:00 -- 8 Este -- -- 0 1007.3 -1.9 --
2020-01-19 05:00:00 12.2 5 Sudeste 11 Sur 0 1007.8 -2.2 91
2020-01-19 04:00:00 12.2 7 Sur 13 Sur 0 1008.6 -2.2 91
2020-01-19 03:00:00 12.4 11 Sur 15 Sur 0 1009.2 -2.2 90
2020-01-19 02:00:00 12.1 8 Sudoeste 11 Sudoeste 0 1010 -1.8 90
2020-01-19 01:00:00 11.9 9 Sudoeste 13 Sudoeste 0 1010.8 -1.4 91
2020-01-19 00:00:00 11.3 8 Sudoeste 13 Sudoeste 0 1011.4 -1.5 90
2020-01-18 23:00:00 11.3 13 Sudoeste 15 Sudoeste 0 1011.8 -1.7 90
2020-01-18 22:00:00 10.8 12 Sudoeste 17 Sudoeste 0 1012.2 -1.8 89
2020-01-18 21:00:00 10.9 10 Sudoeste 17 Sudoeste 0 1012.9 -1.4 92
2020-01-18 20:00:00 10.2 8 Sudoeste 13 Sudoeste 0 1013.5 -1.3 92
2020-01-18 19:00:00 10.7 10 Sudoeste 13 Sudoeste 0 1014 -1.7 90
2020-01-18 18:00:00 12.3 8 Sudoeste 17 Sudoeste 0 1014.3 -1.5 85
2020-01-18 17:00:00 14.5 13 Sudoeste 26 Sudoeste 0 1014.8 -2.1 76
2020-01-18 16:00:00 14.5 17 Sudoeste 28 Sudoeste 0 1015.7 -2.6 74
2020-01-18 15:00:00 15.2 19 Sudoeste 28 Oeste 0 1015.8 -4.2 69
2020-01-18 14:00:00 15.2 19 Sudoeste 32 Sudoeste 0 1016.9 -3.8 67
2020-01-18 13:00:00 14.4 18 Sudoeste 30 Sur 0 1018.3 -2 70
2020-01-18 12:00:00 14.3 17 Sudoeste 26 Sudoeste 0 1020 -0.7 68
2020-01-18 11:00:00 14.1 15 Sur 22 Sur 0 1020.7 0.3 72
2020-01-18 10:00:00 11.3 8 Sur 13 Sur 0 1020.3 0.2 88
2020-01-18 09:00:00 7.9 5 Sudeste 13 Sur 0 1020.7 0.7 95
2020-01-18 08:00:00 4.5 5 Sudeste 13 Sudeste 0 1020.4 -0.1 94
2020-01-18 07:00:00 4.3 0 Calma -- -- 0 1020.1 -0.6 91
2020-01-18 06:00:00 5.5 0 Calma 9 Nordeste 0 1020 -0.8 92
2020-01-18 05:00:00 6.2 7 Nordeste 9 Nordeste 0 1020.5 -0.1 90
2020-01-18 04:00:00 7 9 Nordeste 11 Norte 0 1020.7 0.2 90
2020-01-18 03:00:00 6.6 6 Nordeste 15 Nordeste 0 1020.8 0.3 89
2020-01-18 02:00:00 7.6 13 Norte 18 Norte 0 1020.6 0.2 85
2020-01-18 01:00:00 8.6 14 Norte 22 Norte 0 1020.5 0.1 83
2020-01-18 00:00:00 8.9 15 Nordeste 26 Nordeste 0 1020.5 0.6 83
2020-01-17 23:00:00 10 17 Nordeste 33 Norte 0 1020.4 1.8 78
2020-01-17 22:00:00 10.4 25 Norte 39 Norte 0 1020.4 3.1 78
2020-01-17 21:00:00 11.2 27 Norte 46 Norte 0 1019.9 3.6 80
2020-01-17 20:00:00 12.5 15 Oeste 33 Oeste 0 1018.6 2.9 76
2020-01-17 19:00:00 12.9 17 Oeste 37 Oeste 0 1017.3 1.8 72
2020-01-17 18:00:00 13 15 Oeste 26 Oeste 0 1016.3 0.9 71
2020-01-17 17:00:00 15.4 16 Oeste 28 Oeste 0 1015.7 -0.1 65
2020-01-17 16:00:00 16.1 20 Oeste 39 Sudoeste 0 1015.5 -1.4 75
2020-01-17 15:00:00 16.2 21 Sudoeste 39 Oeste 0 1015.4 -2.4 80
2020-01-17 14:00:00 16.1 25 Sudoeste 41 Sudoeste 0 1015.8 -2.4 78
2020-01-17 13:00:00 14.8 26 Sudoeste 37 Sudoeste 0 1016.9 -0.9 81
2020-01-17 12:00:00 14 20 Sudoeste 37 Oeste 0 1017.8 0.3 83
2020-01-17 11:00:00 13.8 22 Sudoeste 33 Sudoeste 0 1018.2 0.9 84
2020-01-17 10:00:00 13.5 19 Sudoeste 32 Sudoeste 0 1017.8 0.7 84
2020-01-17 09:00:00 13.4 21 Sudoeste 35 Sudoeste 0 1017.5 0.5 82
2020-01-17 08:00:00 12.8 25 Sudoeste 37 Sudoeste 0 1017.3 0.4 84
2020-01-17 07:00:00 12.5 22 Sudoeste 35 Sudoeste 0 1017.1 -0.3 85
2020-01-17 06:00:00 12.7 19 Sudoeste 32 Sudoeste 0 1017 -0.6 85
2020-01-17 05:00:00 12.3 20 Sudoeste 32 Sudoeste 0 1016.9 -0.9 85
2020-01-17 04:00:00 12.4 19 Sudoeste 30 Sudoeste 0 1017.4 -0.5 87
2020-01-17 03:00:00 12.2 15 Sudoeste 26 Sudoeste 0 1017.6 -0.6 87
2020-01-17 02:00:00 12.1 15 Sudoeste 22 Sudoeste 0 1017.8 -0.4 89
2020-01-17 01:00:00 11.9 14 Sudoeste 22 Sudoeste 0 1017.9 -0.3 92
2020-01-17 00:00:00 11.6 11 Sudoeste 18 Sudoeste 0 1018.2 -0.1 93
2020-01-16 23:00:00 11.3 11 Sudoeste 15 Sur 0 1018.2 -0.1 94
2020-01-16 22:00:00 10.8 10 Sudoeste 15 Sudoeste 0 1018.2 0 96
2020-01-16 21:00:00 9.6 11 Sur 13 Sur 0 1018.3 0.6 96
2020-01-16 20:00:00 8 9 Sur 11 Sur 0 1018.3 0.9 93
2020-01-16 19:00:00 -- 8 Sudoeste 9 Sudoeste 0 1018.2 0.8 --
2020-01-16 18:00:00 11.4 8 Sudoeste 9 Sudoeste 0 1017.7 0.3 80
2020-01-16 17:00:00 14.7 7 Sur 13 Sur 0 1017.4 -0.3 72
2020-01-16 16:00:00 15.1 9 Sudoeste 18 Sudeste 0 1017.4 -0.8 69
2020-01-16 15:00:00 15.4 8 Sudoeste 22 Sudoeste 0 1017.4 -1.4 67
2020-01-16 14:00:00 15.4 10 Sur 18 Sur 0 1017.7 -1.3 68
2020-01-16 13:00:00 15.7 12 Sur 21 Sur 0 1018.2 -0.5 67
2020-01-16 12:00:00 15.5 13 Sur 22 Sur 0 1018.8 0.2 68
2020-01-16 11:00:00 14.5 16 Sur 21 Sur 0 1019 0.6 72
2020-01-16 10:00:00 13.1 6 Sudeste 18 Sudeste 0 1018.7 0.5 92
2020-01-16 09:00:00 5.9 4 Sudeste 8 Sudeste 0 1018.6 0.7 96
2020-01-16 08:00:00 4.3 0 Calma -- -- 0 1018.4 0.6 96
2020-01-16 07:00:00 4.7 0 Calma -- -- 0 1018.2 0.5 96
2020-01-16 06:00:00 4.7 0 Calma -- -- 0 1017.9 0 95
2020-01-16 05:00:00 5.3 0 Calma -- -- 0 1017.8 0.3 94
2020-01-16 04:00:00 6.1 4 Nordeste 8 Norte 0 1017.7 -0.1 94
2020-01-16 03:00:00 6.5 7 Norte 11 Norte 0 1017.9 0.1 94
2020-01-16 02:00:00 6.6 9 Norte 13 Norte 0 1017.5 -0.2 92
2020-01-16 01:00:00 8.3 11 Noroeste 13 Noroeste 0 1017.8 0.4 94
2020-01-16 00:00:00 6.9 7 Noroeste 9 Noroeste 0 1017.8 0.6 93
2020-01-15 23:00:00 7.2 0 Calma 8 Noroeste 0 1017.7 0.9 90
2020-01-15 22:00:00 8.8 -- -- -- -- 0 1017.4 1 86
2020-01-15 21:00:00 10.8 7 Sudoeste 13 Sudoeste 0 1017.2 1.3 83
2020-01-15 20:00:00 11.8 10 Sudoeste 18 Sudoeste 0 1016.8 1.3 82
2020-01-15 19:00:00 12.1 10 Sudoeste 18 Sudoeste 0 1016.4 0.9 82
2020-01-15 18:00:00 12.4 12 Sudoeste 22 Sudoeste 0 1015.9 0.7 79
2020-01-15 17:00:00 13.7 14 Sudoeste 28 Sudoeste 0 1015.5 0.2 77
2020-01-15 16:00:00 14.6 17 Sur 30 Sur 0 1015.5 0.1 76
2020-01-15 15:00:00 15 20 Sudoeste 32 Sudoeste 0 1015.2 -0.8 71
2020-01-15 14:00:00 15.1 22 Sudoeste 33 Sudoeste 0 1015.3 -0.8 69
2020-01-15 13:00:00 14.9 21 Sur 33 Sur 0 1015.4 -0.2 72
2020-01-15 12:00:00 14.8 21 Sur 33 Sur 0 1016 1.1 68
2020-01-15 11:00:00 14.5 23 Sur 33 Sur 0 1016.1 1.4 68
2020-01-15 10:00:00 13.5 18 Sur 30 Sur 0 1015.6 1.3 73
2020-01-15 09:00:00 12.7 20 Sur 30 Sudoeste 0 1014.9 1 72
2020-01-15 08:00:00 12.3 15 Sur 24 Sur 0 1014.7 0.8 69
2020-01-15 07:00:00 12.1 12 Sur 30 Sur 0 1014.3 0.1 69
2020-01-15 06:00:00 12.2 16 Sur 26 Sur 0 1013.9 -0.6 74
2020-01-15 05:00:00 11.8 18 Sur 26 Sur 0 1013.9 -0.5 76
2020-01-15 04:00:00 10.8 17 Sur 28 Sur 0 1014.2 -0.4 80
2020-01-15 03:00:00 10.5 14 Sur 26 Sur 0 1014.5 -0.2 80
2020-01-15 02:00:00 10.8 17 Sur 28 Sur 0 1014.4 -0.2 79
2020-01-15 01:00:00 10.8 18 Sur 26 Sur 0 1014.6 -0.1 77
2020-01-15 00:00:00 10.8 18 Sur 28 Sur 0 1014.7 -0.1 76
2020-01-14 23:00:00 11 19 Sur 26 Sur 0 1014.6 -0.1 74
2020-01-14 22:00:00 11.5 16 Sur 28 Sudoeste 0 1014.7 0.3 71
2020-01-14 21:00:00 11.7 14 Sur 26 Sur 0 1014.8 0.9 71
2020-01-14 20:00:00 11.7 16 Sur 26 Sur 0 1014.7 1.1 72
2020-01-14 19:00:00 12.1 17 Sur 30 Sur 0 1014.4 1.1 67
2020-01-14 18:00:00 12.2 12 Sur 24 Sudoeste 0 1013.9 0.7 69
2020-01-14 17:00:00 13.1 17 Sudoeste 30 Sur 0 1013.6 0.4 65
2020-01-14 16:00:00 13.7 22 Sur 33 Sur 0 1013.3 -0.4 67
2020-01-14 15:00:00 14.1 20 Sudoeste 33 Sudoeste 0 1013.2 -1.1 61
2020-01-14 14:00:00 14 24 Sudoeste 35 Sudoeste 0 1013.2 -1.3 62
2020-01-14 13:00:00 13.7 25 Sur 41 Sudoeste 0 1013.7 -0.7 62
2020-01-14 12:00:00 14.1 26 Sudoeste 41 Sudoeste 0 1014.3 0.6 59
2020-01-14 11:00:00 13.6 22 Sudoeste 35 Sudoeste 0 1014.5 0.8 63
2020-01-14 10:00:00 13 17 Sudoeste 33 Sudoeste 0 1014.4 1.2 67
2020-01-14 09:00:00 12.5 19 Sudoeste 30 Sudoeste 0 1013.7 1 66
2020-01-14 08:00:00 11.8 15 Sudoeste 28 Sudoeste 0 1013.7 1.1 68
2020-01-14 07:00:00 11.7 14 Sudoeste 32 Sudoeste 0 1013.2 0.4 68
2020-01-14 06:00:00 11.9 19 Sudoeste 32 Sudoeste 0 1012.7 -0.2 67
2020-01-14 05:00:00 12.2 18 Sudoeste 33 Sudoeste 0 1012.6 -0.3 67
2020-01-14 04:00:00 12 19 Sudoeste 30 Sudoeste 0 1012.8 -0.8 68
2020-01-14 03:00:00 12 19 Sudoeste 33 Sudoeste 0 1012.9 -0.8 69
2020-01-14 02:00:00 11.7 16 Sudoeste 30 Sur 0 1012.9 -0.9 70
2020-01-14 01:00:00 11.4 18 Sudoeste 32 Sudoeste 0 1013.6 -0.1 72
2020-01-14 00:00:00 11.5 17 Sudoeste 32 Sudoeste 0 1013.7 -0.6 73
2020-01-13 23:00:00 11.5 18 Sudoeste 28 Sudoeste 0 1013.8 -0.5 73
2020-01-13 22:00:00 11.1 19 Sudoeste 32 Sudoeste 0 1013.7 -0.8 75
2020-01-13 21:00:00 11.1 15 Sudoeste 24 Sudoeste 0 1014.3 0.2 74
2020-01-13 20:00:00 11.3 16 Sudoeste 28 Sudoeste 0 1014.3 0.4 76
2020-01-13 19:00:00 10.9 13 Sudoeste 24 Sudoeste 0 1014.5 0.5 77
2020-01-13 18:00:00 10.8 14 Sudoeste 24 Sudoeste 0 1014.1 -0.1 79
2020-01-13 17:00:00 13 15 Sudoeste 26 Sudoeste 0 1013.9 -0.9 69
2020-01-13 16:00:00 13.7 17 Sudoeste 26 Sudoeste 0 1014 -1.6 69
2020-01-13 15:00:00 14.1 15 Sudoeste 26 Sudoeste 0 1014.2 -2.4 72
2020-01-13 14:00:00 13.6 15 Sudoeste 24 Oeste 0 1014.8 -1.8 70
2020-01-13 13:00:00 13.9 15 Sudoeste 26 Sudoeste 0 1015.6 -1 67
2020-01-13 12:00:00 14.1 11 Sudoeste 18 Sur 0 1016.6 0.2 68
2020-01-13 11:00:00 13.3 11 Sudoeste 15 Oeste 0 1016.6 0.4 75
2020-01-13 10:00:00 11.4 4 Oeste -- -- 0 1016.6 0.4 94
2020-01-13 09:00:00 -- 8 Oeste -- -- 0 1016.4 0.2 --
2020-01-13 08:00:00 4.6 6 Noroeste 13 Noroeste 0 1016.2 -0.1 97
2020-01-13 07:00:00 3.5 10 Noroeste -- -- 0 1016.2 -0.6 97
2020-01-13 06:00:00 4.4 8 Noroeste 13 Noroeste 0 1016.2 -1 96
2020-01-13 05:00:00 3.4 8 Noroeste 11 Noroeste 0 1016.3 -0.8 95
2020-01-13 04:00:00 5.1 9 Noroeste -- -- 0 1016.8 -0.8 96
2020-01-13 03:00:00 4.9 7 Noroeste 11 Noroeste 0 1017.2 -1 94
2020-01-13 02:00:00 7.4 8 Noroeste 17 Noroeste 0 1017.1 -1.4 93
2020-01-13 01:00:00 7.8 13 Noroeste 17 Noroeste 0 1017.6 -0.8 94
2020-01-13 00:00:00 7.5 12 Noroeste 15 Noroeste 0 1018.2 0.1 94
2020-01-12 23:00:00 8.1 11 Noroeste 15 Noroeste 0 1018.5 0.4 93
2020-01-12 22:00:00 8.7 12 Noroeste 17 Norte 0 1018.4 0.5 94
2020-01-12 21:00:00 8.5 12 Noroeste 15 Noroeste 0 1018.1 0.6 94
2020-01-12 20:00:00 8.7 12 Norte 15 Norte 0 1018.1 0.7 93
2020-01-12 19:00:00 9.1 10 Noroeste 13 Noroeste 0 1017.9 0.9 91
2020-01-12 18:00:00 10.4 9 Norte 21 Norte 0 1017.5 0.8 87
2020-01-12 17:00:00 12.1 14 Norte 26 Norte 0 1017.4 0.3 84
2020-01-12 16:00:00 12.9 20 Norte 39 Norte 0 1017 -0.8 77
2020-01-12 15:00:00 13.4 28 Norte 41 Norte 0 1016.7 -1.7 75
2020-01-12 14:00:00 13.4 28 Norte 42 Norte 0 1017.1 -1.8 73
2020-01-12 13:00:00 13.6 29 Norte 41 Norte 0 1017.8 -0.6 71
2020-01-12 12:00:00 13.3 26 Norte 39 Norte 0 1018.4 0.3 71
2020-01-12 11:00:00 12.8 27 Norte 41 Norte 0 1018.9 0.9 72
2020-01-12 10:00:00 12 23 Norte 33 Norte 0 1018.4 0.7 74
2020-01-12 09:00:00 9.9 17 Norte 22 Norte 0 1018.1 0.9 86
2020-01-12 08:00:00 8.7 10 Norte 24 Norte 0 1018 0.8 88
2020-01-12 07:00:00 9.2 16 Norte 26 Norte 0 1017.7 0.2 87
2020-01-12 06:00:00 9.5 17 Norte 26 Norte 0 1017.2 -0.4 87
2020-01-12 05:00:00 9.8 17 Norte 32 Norte 0 1017.2 -0.2 88
2020-01-12 04:00:00 10.1 23 Norte 33 Norte 0 1017.5 -0.2 86
2020-01-12 03:00:00 9.7 19 Norte 30 Norte 0 1017.6 -0.4 90
2020-01-12 02:00:00 8.8 16 Norte 21 Norte 0 1017.4 -0.8 92
2020-01-12 01:00:00 8.7 12 Norte 17 Norte 0 1017.7 -0.2 92
2020-01-12 00:00:00 8.5 8 Noroeste 21 Norte 0 1018 0 91
2020-01-11 23:00:00 9.2 18 Norte 32 Norte 0 1018.2 0.2 89
2020-01-11 22:00:00 9.2 24 Norte 30 Norte 0 1017.9 0.1 91
2020-01-11 21:00:00 10.3 19 Norte 30 Norte 0 1018 0.5 86
2020-01-11 20:00:00 10.8 21 Norte 32 Norte 0 1018 0.8 86
2020-01-11 19:00:00 11 24 Norte 39 Norte 0 1017.8 0.7 83
2020-01-11 18:00:00 10.8 16 Norte 28 Norte 0 1017.5 0.4 86
2020-01-11 17:00:00 11 17 Norte 32 Norte 0 1017.2 -0.3 84
2020-01-11 16:00:00 10.9 25 Norte 50 Norte 0 1017.1 -1 87
2020-01-11 15:00:00 11.6 31 Norte 42 Norte 0 1017.1 -1.5 78
2020-01-11 14:00:00 12.7 28 Norte 46 Norte 0 1017.5 -1.4 73
2020-01-11 13:00:00 11.7 31 Norte 48 Norte 0 1018.1 -0.3 76
2020-01-11 12:00:00 12.8 36 Norte 46 Norte 0 1018.6 0.9 71
2020-01-11 11:00:00 11.6 32 Norte 46 Norte 0 1018.9 1.5 74
2020-01-11 10:00:00 11.1 30 Norte 46 Norte 0 1018.4 1.4 76
2020-01-11 09:00:00 10.8 33 Norte 48 Norte 0 1017.7 1.2 76
2020-01-11 08:00:00 10.7 30 Norte 45 Norte 0 1017.4 1.2 79
2020-01-11 07:00:00 10.7 27 Norte 41 Norte 0 1017 0.7 79
2020-01-11 06:00:00 10.1 28 Norte 48 Norte 0 1016.5 0 81
2020-01-11 05:00:00 10.8 33 Norte 50 Norte 0 1016.2 0 79
2020-01-11 04:00:00 11 32 Norte 55 Norte 0 1016.3 0.1 79
2020-01-11 03:00:00 11.1 39 Norte 52 Norte 0 1016.5 0.1 81
2020-01-11 02:00:00 11.2 36 Norte 50 Norte 0 1016.2 0 83
2020-01-11 01:00:00 11.1 30 Norte 50 Norte 0 1016.2 0.1 84
2020-01-11 00:00:00 11.2 30 Norte 41 Norte 0 1016.4 1 85
2020-01-10 23:00:00 10.9 23 Norte 46 Norte 1.1 1016.2 1.3 91
2020-01-10 22:00:00 11.2 32 Norte 46 Norte 0 1016.1 1.7 89
2020-01-10 21:00:00 11.7 31 Norte 45 Nordeste 0 1015.4 1.4 83
2020-01-10 20:00:00 11.7 33 Nordeste 46 Nordeste 0 1014.9 1.3 82
2020-01-10 19:00:00 11.6 28 Norte 45 Nordeste 0 1014.4 0.9 86
2020-01-10 18:00:00 11.3 30 Nordeste 45 Norte 0.4 1014 0.9 88
2020-01-10 17:00:00 10.8 30 Nordeste 45 Nordeste 0.9 1013.6 0.5 94
2020-01-10 16:00:00 11 32 Nordeste 45 Nordeste 0.7 1013.5 -0.1 95
2020-01-10 15:00:00 11.2 29 Norte 39 Norte 1.1 1013.1 -1.3 93
2020-01-10 14:00:00 12.2 29 Nordeste 45 Nordeste 0 1013.1 -1.5 87
2020-01-10 13:00:00 12.1 29 Nordeste 45 Nordeste 0 1013.6 -0.6 87
2020-01-10 12:00:00 11.4 26 Norte 39 Norte 0.5 1014.4 0.5 92
2020-01-10 11:00:00 13.8 10 Nordeste 15 Norte 0 1014.6 0.9 81
2020-01-10 10:00:00 12 10 Norte 13 Norte 0 1014.2 0.9 90
2020-01-10 09:00:00 9.9 10 Norte 13 Norte 0 1013.9 0.3 94
2020-01-10 08:00:00 9.3 8 Norte 15 Noroeste 0 1013.7 0.1 93
2020-01-10 07:00:00 9.7 7 Nordeste 11 Este 0 1013.3 -0.9 93
2020-01-10 06:00:00 9.5 7 Norte 11 Noroeste 0 1013.6 -0.5 93
2020-01-10 05:00:00 9.5 8 Nordeste -- -- 0 1013.6 -0.6 93
2020-01-10 04:00:00 8.2 7 Noroeste 11 Este 0 1014.2 -0.1 93
2020-01-10 03:00:00 9 8 Este 9 Este 0 1014.1 -1.1 94
2020-01-10 02:00:00 7.7 0 Calma -- -- 0 1014.2 -1.8 95
2020-01-10 01:00:00 6.5 4 Sudoeste 5 Sudoeste 0 1014.3 -1.7 93
2020-01-10 00:00:00 8.6 6 Sur 11 Sur 0 1015.2 -0.8 94
2020-01-09 23:00:00 7.7 9 Sudeste -- -- 0 1016 0 93
2020-01-09 22:00:00 -- 8 Sur -- -- 0 1016 0 --
2020-01-09 21:00:00 -- 8 Sur 13 Sudeste 0 1016 0.1 --
2020-01-09 20:00:00 9.8 10 Sudeste 15 Sudeste 0 1016 0 87
2020-01-09 19:00:00 10.3 7 Sudeste 9 Sudeste 0 1016 0 85
2020-01-09 18:00:00 12.1 5 Sur 9 Sur 0 1015.9 0 79
2020-01-09 17:00:00 13.7 7 Sur 17 Sur 0 1016 -0.2 74
2020-01-09 16:00:00 14.9 11 Sudeste 22 Sur 0 1016 -1 67
2020-01-09 15:00:00 15.6 14 Sur 24 Sudeste 0 1015.9 -2 66
2020-01-09 14:00:00 16.2 15 Sudeste 30 Sudeste 0 1016.2 -2.1 64
2020-01-09 13:00:00 14.9 16 Sudeste 24 Sudeste 0 1017 -1.1 70
2020-01-09 12:00:00 15.3 13 Sudeste 22 Sudeste 0 1017.9 -0.1 66
2020-01-09 11:00:00 15 15 Este 22 Este 0 1018.3 0.5 71
2020-01-09 10:00:00 12.9 10 Este 13 Este 0 1018.1 0.4 86
2020-01-09 09:00:00 8.4 10 Nordeste 15 Nordeste 0 1018 0.3 94
2020-01-09 08:00:00 8.6 13 Nordeste 18 Este 0 1017.8 0 94
2020-01-09 07:00:00 9.2 12 Nordeste 17 Nordeste 0 1017.7 -0.4 92
2020-01-09 06:00:00 9.1 13 Nordeste 17 Nordeste 0 1017.7 -0.8 95
2020-01-09 05:00:00 6.4 13 Nordeste -- -- 0 1017.8 -0.8 93
2020-01-09 04:00:00 7.5 11 Norte 18 Norte 0 1018.1 -0.6 93
2020-01-09 03:00:00 7.8 16 Norte 18 Norte 0 1018.5 -0.8 92
2020-01-09 02:00:00 7.3 12 Norte 13 Norte 0 1018.6 -1 92
2020-01-09 01:00:00 7.1 13 Norte 15 Nordeste 0 1018.7 -0.9 92
2020-01-09 00:00:00 7.6 10 Nordeste 15 Nordeste 0 1019.3 -0.1 90
2020-01-08 23:00:00 9 12 Nordeste 18 Nordeste 0 1019.6 0.2 90
2020-01-08 22:00:00 8.1 13 Norte 15 Norte 0 1019.6 0.4 91
2020-01-08 21:00:00 9.9 14 Nordeste 21 Nordeste 0 1019.4 0.5 87
2020-01-08 20:00:00 10.9 13 Nordeste 24 Nordeste 0 1019.4 0.8 84
2020-01-08 19:00:00 11.3 16 Nordeste 28 Nordeste 0 1019.2 0.9 83
2020-01-08 18:00:00 11.7 17 Nordeste 33 Nordeste 0 1018.9 0.9 79
2020-01-08 17:00:00 13 25 Nordeste 35 Norte 0 1018.6 0.5 74
2020-01-08 16:00:00 13 27 Nordeste 39 Nordeste 0 1018.3 0 74
2020-01-08 15:00:00 14.2 31 Norte 42 Norte 0 1018 -0.8 71
2020-01-08 14:00:00 14.3 28 Norte 45 Norte 0 1018.1 -0.9 73
2020-01-08 13:00:00 14.6 31 Nordeste 41 Norte 0 1018.3 -0.2 72
2020-01-08 12:00:00 14.3 31 Norte 41 Norte 0 1018.8 1 75
2020-01-08 11:00:00 14.3 26 Norte 41 Norte 0 1019 1.7 77
2020-01-08 10:00:00 13.5 20 Norte 32 Norte 0 1018.5 1.4 80
2020-01-08 09:00:00 11.3 14 Norte 26 Norte 0 1017.8 1 87
2020-01-08 08:00:00 11.1 13 Norte 28 Norte 0 1017.3 0.6 83
2020-01-08 07:00:00 11.8 15 Noroeste 30 Noroeste 0 1017.1 -0.1 80
2020-01-08 06:00:00 11.2 17 Norte 30 Norte 0 1016.8 -0.6 85
2020-01-08 05:00:00 10.5 10 Oeste 17 Noroeste 0 1016.7 -0.5 93
2020-01-08 04:00:00 10.6 11 Noroeste 17 Oeste 0 1017.2 0 93
2020-01-08 03:00:00 9.8 9 Noroeste 21 Noroeste 0 1017.4 -0.2 91
2020-01-08 02:00:00 9.7 12 Noroeste 21 Oeste 0 1017.2 -0.7 91
2020-01-08 01:00:00 9.1 11 Noroeste 18 Noroeste 0 1017.2 -1 91
2020-01-08 00:00:00 8.9 11 Noroeste 18 Oeste 0 1017.6 -0.5 91
2020-01-07 23:00:00 9.5 13 Oeste 21 Oeste 0 1017.9 0.2 91
2020-01-07 22:00:00 10 9 Noroeste 18 Noroeste 0 1018.2 0.4 91
2020-01-07 21:00:00 10.2 12 Noroeste 22 Noroeste 0 1018.1 0 92
2020-01-07 20:00:00 9.3 9 Oeste 17 Oeste 0 1017.7 -0.4 92
2020-01-07 19:00:00 9.1 10 Oeste 15 Oeste 0 1017.8 -0.2 90
2020-01-07 18:00:00 10.5 8 Noroeste 17 Noroeste 0 1018.1 0.1 85
2020-01-07 17:00:00 12.7 12 Noroeste 21 Noroeste 0 1018.1 0 75
2020-01-07 16:00:00 14.2 11 Noroeste 17 Noroeste 0 1018 -0.8 72
2020-01-07 15:00:00 16.7 9 Oeste 22 Oeste 0 1018 -1.6 65
2020-01-07 14:00:00 14.5 8 Oeste 17 Norte 0 1018.1 -2 73
2020-01-07 13:00:00 15.4 5 Norte 15 Noroeste 0 1018.8 -1.2 63
2020-01-07 12:00:00 15 10 Norte 17 Norte 0 1019.6 0 71
2020-01-07 11:00:00 14.5 8 Norte 15 Norte 0 1020.1 0.9 76
2020-01-07 10:00:00 12.7 5 Noroeste 9 Noroeste 0 1020 1.3 87
2020-01-07 09:00:00 9.1 10 Norte -- -- 0 1019.6 1.1 95
2020-01-07 08:00:00 7.2 14 Norte 15 Norte 0 1019.2 0.4 96
2020-01-07 07:00:00 5.5 8 Norte 11 Sur 0 1018.7 -0.5 96
2020-01-07 06:00:00 5.4 7 Norte 11 Norte 0 1018.5 -0.8 96
2020-01-07 05:00:00 -- -- -- -- -- 0 1018.8 -0.3 --
2020-01-07 04:00:00 6.3 -- -- -- -- 0 1019.2 0.1 95
2020-01-07 03:00:00 6.4 12 Norte -- -- 0 1019.3 0.4 95
2020-01-07 02:00:00 6.5 12 Norte -- -- 0 1019.1 0.3 95
2020-01-07 01:00:00 6.2 13 Norte -- -- 0 1019.1 0.5 96
2020-01-07 00:00:00 -- -- -- -- -- 0 1018.9 0.4 --
2020-01-06 23:00:00 -- -- -- -- -- 0 1018.8 0.7 --
2020-01-06 22:00:00 6.7 4 Nordeste 8 Este 0 1018.6 0.7 95
2020-01-06 21:00:00 7.9 0 Calma 4 Norte 0 1018.5 1 94
2020-01-06 20:00:00 6.7 0 Calma -- -- 0 1018.1 0.7 92
2020-01-06 19:00:00 8.7 6 Sudeste -- -- 0 1017.9 0.8 90
2020-01-06 18:00:00 10.6 6 Sur -- -- 0 1017.5 0.6 82
2020-01-06 17:00:00 14.6 6 Sur 11 Sudoeste 0 1017.4 0.2 70
2020-01-06 16:00:00 15.8 8 Sur 11 Sur 0 1017.1 -0.7 67
2020-01-06 15:00:00 15 8 Sudoeste 13 Sudoeste 0 1016.9 -1.3 72
2020-01-06 14:00:00 13.7 6 Sudoeste 13 Sudoeste 0 1017.2 -1.2 78
2020-01-06 13:00:00 13.3 10 Sur 18 Sur 0 1017.8 -0.4 79
2020-01-06 12:00:00 13.3 12 Sur 21 Sur 0 1018.2 0.4 81
2020-01-06 11:00:00 13.1 9 Sur 17 Sur 0 1018.4 1.3 81
2020-01-06 10:00:00 12.6 9 Sur 13 Sur 0 1018.2 1.5 84